Time;durP1;ratioP1;P1;durP2;ratioP2;P2;SDS_P1;SDS_P2;PMS_P1;PMS_P2;Temp;Humidity;BMP_temperature;BMP_pressure;BME280_temperature;BME280_humidity;BME280_pressure;Samples;Min_cycle;Max_cycle;Signal;HPM_P1;HPM_P2
2021/03/01 00:00:16;;;;;;;45.2;31.9;;;;;;;4.26;89.63867;100215.7;;;;
2021/03/01 00:10:14;;;;;;;41.7;31.7;;;;;;;4.27;89.69824;100206.6;;;;
2021/03/01 00:20:12;;;;;;;32.2;27;;;;;;;4.19;90.38965;100223.8;;;;
2021/03/01 00:30:10;;;;;;;26.4;20.3;;;;;;;3.98;91.95996;100253.6;;;;
2021/03/01 00:40:08;;;;;;;18.6;15.8;;;;;;;3.91;92.84277;100255.5;;;;
2021/03/01 00:50:08;;;;;;;26.7;17.9;;;;;;;3.78;93.22266;100267.2;;;;
2021/03/01 01:00:11;;;;;;;23.6;19.5;;;;;;;3.59;92.30957;100265.5;;;;
2021/03/01 01:10:04;;;;;;;29.6;19.1;;;;;;;3.33;91.86719;100273.8;;;;
2021/03/01 01:20:00;;;;;;;24.9;16.1;;;;;;;3.19;91.70215;100274.9;;;;
2021/03/01 01:29:58;;;;;;;22.3;16.2;;;;;;;3.14;91.80371;100282.7;;;;
2021/03/01 01:39:56;;;;;;;21.9;16.6;;;;;;;3.08;91.39453;100281.8;;;;
2021/03/01 01:49:54;;;;;;;29.3;18.7;;;;;;;2.97;91.54688;100314.4;;;;
2021/03/01 01:59:52;;;;;;;20.7;13.9;;;;;;;2.84;91.63965;100314.5;;;;
2021/03/01 02:09:50;;;;;;;23.4;16.7;;;;;;;2.83;91.46289;100302.2;;;;
2021/03/01 02:19:48;;;;;;;19.3;16;;;;;;;2.78;91.80469;100302.9;;;;
2021/03/01 02:29:46;;;;;;;20.7;14.7;;;;;;;2.8;91.62305;100314.1;;;;
2021/03/01 02:39:44;;;;;;;22.4;16.2;;;;;;;2.82;91.8584;100312;;;;
2021/03/01 02:49:42;;;;;;;21.2;16.3;;;;;;;2.82;92.2666;100298.7;;;;
2021/03/01 02:59:40;;;;;;;21.2;17.4;;;;;;;2.88;92.08984;100305.1;;;;
2021/03/01 03:09:38;;;;;;;27.3;19.8;;;;;;;2.84;92.41406;100304.7;;;;
2021/03/01 03:19:36;;;;;;;29.2;21;;;;;;;2.85;92.60352;100314.3;;;;
2021/03/01 03:29:34;;;;;;;32.6;24.6;;;;;;;2.81;93.0127;100317.6;;;;
2021/03/01 03:39:32;;;;;;;23.4;19.4;;;;;;;2.76;93.24316;100322.7;;;;
2021/03/01 03:49:30;;;;;;;30.9;22;;;;;;;2.63;93.76758;100323.6;;;;
2021/03/01 03:59:28;;;;;;;28.5;20.1;;;;;;;2.65;93.81543;100326.9;;;;
2021/03/01 04:09:26;;;;;;;36.9;22.2;;;;;;;2.6;94.35645;100318.8;;;;
2021/03/01 04:19:24;;;;;;;29.3;22.6;;;;;;;2.54;95.02539;100327.6;;;;
2021/03/01 04:29:22;;;;;;;29.2;24.2;;;;;;;2.63;94.91309;100331.6;;;;
2021/03/01 04:39:20;;;;;;;38.6;26.8;;;;;;;2.58;95.12402;100331.4;;;;
2021/03/01 04:49:18;;;;;;;29.7;23.8;;;;;;;2.62;95.07813;100330;;;;
2021/03/01 04:59:16;;;;;;;32;25.9;;;;;;;2.6;95.53516;100336.6;;;;
2021/03/01 05:09:14;;;;;;;37.8;31.1;;;;;;;2.62;95.69531;100346;;;;
2021/03/01 05:19:12;;;;;;;46.3;31.6;;;;;;;2.6;95.83203;100350.7;;;;
2021/03/01 05:29:10;;;;;;;34;28.6;;;;;;;2.52;96.28809;100365;;;;
2021/03/01 05:39:08;;;;;;;33.7;26.1;;;;;;;2.59;96.63184;100366.9;;;;
2021/03/01 05:49:06;;;;;;;36.6;26.3;;;;;;;2.6;96.69141;100374.6;;;;
2021/03/01 05:59:04;;;;;;;40.8;29;;;;;;;2.58;96.87207;100378.5;;;;
2021/03/01 06:09:02;;;;;;;35.2;26.8;;;;;;;2.68;97.02637;100394.9;;;;
2021/03/01 06:19:00;;;;;;;32.7;24.3;;;;;;;2.87;96.49805;100408.1;;;;
2021/03/01 06:28:58;;;;;;;35.9;28.2;;;;;;;2.92;96.21289;100418.9;;;;
2021/03/01 06:38:56;;;;;;;36.1;31.3;;;;;;;3.03;95.81934;100423.6;;;;
2021/03/01 06:48:54;;;;;;;31.3;27.9;;;;;;;3.02;96.15723;100423.8;;;;
2021/03/01 06:58:52;;;;;;;41;28.9;;;;;;;3.14;95.8418;100431.9;;;;
2021/03/01 07:08:52;;;;;;;46.7;33.6;;;;;;;3.25;95.6582;100442.7;;;;
2021/03/01 07:18:50;;;;;;;38.3;28.8;;;;;;;3.35;95.35938;100455.5;;;;
2021/03/01 07:28:53;;;;;;;37.1;28.7;;;;;;;3.37;95.3418;100458.8;;;;
2021/03/01 07:38:44;;;;;;;37;28.3;;;;;;;3.49;95.57715;100467.8;;;;
2021/03/01 07:48:42;;;;;;;42.4;32.1;;;;;;;3.76;95.06348;100479.9;;;;
2021/03/01 07:58:41;;;;;;;56.2;38;;;;;;;3.91;94.05859;100487.6;;;;
2021/03/01 08:08:39;;;;;;;33.3;26.4;;;;;;;3.97;93.76074;100492;;;;
2021/03/01 08:18:37;;;;;;;29.3;23.5;;;;;;;4.19;93.46484;100500.5;;;;
2021/03/01 08:28:37;;;;;;;42.3;29.3;;;;;;;4.14;92.5918;100503;;;;
2021/03/01 08:38:33;;;;;;;41.2;28.2;;;;;;;4.5;92.00488;100511;;;;
2021/03/01 08:48:32;;;;;;;35.8;26.9;;;;;;;4.69;91.49023;100511.9;;;;
2021/03/01 08:58:33;;;;;;;32.3;24.3;;;;;;;4.87;89.60059;100515.4;;;;
2021/03/01 09:08:28;;;;;;;30.8;21.5;;;;;;;5.08;88.7334;100538.1;;;;
2021/03/01 09:18:27;;;;;;;22.5;15.7;;;;;;;5.11;87.32813;100534.2;;;;
2021/03/01 09:28:25;;;;;;;24;19.4;;;;;;;5.04;87.9043;100535.1;;;;
2021/03/01 09:38:23;;;;;;;30.5;22.3;;;;;;;5.19;87.39063;100550.8;;;;
2021/03/01 09:48:22;;;;;;;32;21.4;;;;;;;5.24;86.85742;100542.9;;;;
2021/03/01 09:58:20;;;;;;;24.5;20.3;;;;;;;5.2;86.74707;100546.2;;;;
2021/03/01 10:08:19;;;;;;;22.6;18.1;;;;;;;5.17;86.96387;100549.4;;;;
2021/03/01 10:18:17;;;;;;;22.6;20.1;;;;;;;5.32;86.42871;100539.9;;;;
2021/03/01 10:28:15;;;;;;;36.7;25.2;;;;;;;5.39;86.95313;100551.3;;;;
2021/03/01 10:38:14;;;;;;;30.5;20.5;;;;;;;5.38;85.10547;100571.1;;;;
2021/03/01 10:48:12;;;;;;;24.7;19.5;;;;;;;5.6;84.73828;100579.4;;;;
2021/03/01 10:58:10;;;;;;;24.2;18.5;;;;;;;5.53;85.10254;100570.7;;;;
2021/03/01 11:08:09;;;;;;;21.3;16.3;;;;;;;5.39;84.67383;100575.4;;;;
2021/03/01 11:18:07;;;;;;;26.3;20.1;;;;;;;5.37;85.24805;100571.3;;;;
2021/03/01 11:28:09;;;;;;;27.2;21.4;;;;;;;5.5;85.50684;100576.5;;;;
2021/03/01 11:38:04;;;;;;;28.5;20.8;;;;;;;5.69;85.17676;100571.9;;;;
2021/03/01 11:48:02;;;;;;;36.7;20.5;;;;;;;6.13;83.99316;100562.6;;;;
2021/03/01 11:58:01;;;;;;;22.8;18.6;;;;;;;6.74;80.34961;100556.9;;;;
2021/03/01 12:07:59;;;;;;;22.3;17.2;;;;;;;6.81;78.84277;100563.7;;;;
2021/03/01 12:17:58;;;;;;;26.6;22.1;;;;;;;6.55;79.00781;100561.5;;;;
2021/03/01 12:27:56;;;;;;;26.8;18.4;;;;;;;5.97;80.84277;100566.8;;;;
2021/03/01 12:37:55;;;;;;;25.2;18;;;;;;;6.16;82.38379;100559.5;;;;
2021/03/01 12:47:54;;;;;;;32.7;20.1;;;;;;;6.11;81.21484;100565.5;;;;
2021/03/01 12:57:51;;;;;;;30.7;19.8;;;;;;;5.91;81.95703;100563.2;;;;
2021/03/01 13:07:50;;;;;;;26.8;19.3;;;;;;;6.31;81.07324;100565.3;;;;
2021/03/01 13:17:50;;;;;;;20.1;17;;;;;;;6.27;80.92188;100550.7;;;;
2021/03/01 13:27:50;;;;;;;24.9;16.2;;;;;;;6.46;80.16406;100542.3;;;;
2021/03/01 13:37:45;;;;;;;28.6;23.7;;;;;;;6.48;80.54688;100539.4;;;;
2021/03/01 13:47:44;;;;;;;29.1;22.7;;;;;;;6.49;80.13574;100533;;;;
2021/03/01 13:57:42;;;;;;;37.7;19.5;;;;;;;6.61;79.09766;100517.7;;;;
2021/03/01 14:07:41;;;;;;;25.3;20.6;;;;;;;6.47;79.39551;100532.4;;;;
2021/03/01 14:17:39;;;;;;;31.3;24;;;;;;;6.63;78.51953;100507.6;;;;
2021/03/01 14:27:38;;;;;;;29.7;19.9;;;;;;;6.58;79.21582;100511;;;;
2021/03/01 14:37:36;;;;;;;25.3;19.4;;;;;;;6.61;79.14063;100506.2;;;;
2021/03/01 14:47:35;;;;;;;25.4;20.5;;;;;;;6.69;78.92285;100506.7;;;;
2021/03/01 14:57:33;;;;;;;38.9;29.5;;;;;;;6.55;78.57422;100500.8;;;;
2021/03/01 15:07:32;;;;;;;30.3;25.8;;;;;;;6.7;77.12402;100500.2;;;;
2021/03/01 15:17:30;;;;;;;22.7;18.3;;;;;;;6.59;74.62109;100501.1;;;;
2021/03/01 15:27:29;;;;;;;42;30.6;;;;;;;6.37;75.63477;100489.3;;;;
2021/03/01 15:37:27;;;;;;;44.4;29.4;;;;;;;6.02;77.34961;100492.8;;;;
2021/03/01 15:47:26;;;;;;;29.8;26.7;;;;;;;6.01;76.35449;100504.5;;;;
2021/03/01 15:57:24;;;;;;;19.7;15;;;;;;;5.91;76.52539;100503.5;;;;
2021/03/01 16:07:23;;;;;;;20.9;17.3;;;;;;;5.69;77.04492;100513.9;;;;
2021/03/01 16:17:21;;;;;;;19.2;14.5;;;;;;;5.38;78.10449;100501.5;;;;
2021/03/01 16:27:19;;;;;;;19.7;15.2;;;;;;;5.27;78.35156;100512.2;;;;
2021/03/01 16:37:18;;;;;;;21.7;15.1;;;;;;;5.04;78.83301;100515.6;;;;
2021/03/01 16:47:16;;;;;;;29.2;20.4;;;;;;;4.96;78.97461;100514;;;;
2021/03/01 16:57:14;;;;;;;38.8;18;;;;;;;4.78;80.27441;100521.2;;;;
2021/03/01 17:07:13;;;;;;;30.4;27.1;;;;;;;4.56;80.59082;100520.8;;;;
2021/03/01 17:17:11;;;;;;;21.3;18.5;;;;;;;4.3;81.78613;100531.8;;;;
2021/03/01 17:27:09;;;;;;;30.4;22.1;;;;;;;4.2;82.52148;100524.2;;;;
2021/03/01 17:37:07;;;;;;;27.8;23.8;;;;;;;4.15;82.91113;100528.6;;;;
2021/03/01 17:47:06;;;;;;;44.1;31.9;;;;;;;4.06;83.53711;100520.1;;;;
2021/03/01 17:57:04;;;;;;;29.2;22.1;;;;;;;3.91;84.29688;100530.2;;;;
2021/03/01 18:07:02;;;;;;;46.5;33.1;;;;;;;3.8;84.39746;100515.8;;;;
2021/03/01 18:17:00;;;;;;;63.4;45.7;;;;;;;3.73;84.34863;100507;;;;
2021/03/01 18:26:58;;;;;;;56.9;36.8;;;;;;;3.46;85.10449;100508.2;;;;
2021/03/01 18:36:56;;;;;;;45.5;34.6;;;;;;;3.18;85.80176;100511.2;;;;
2021/03/01 18:46:54;;;;;;;31.7;23;;;;;;;3.09;86.88965;100515.1;;;;
2021/03/01 18:56:52;;;;;;;33.3;21.2;;;;;;;3.14;87.41797;100533.1;;;;
2021/03/01 19:06:50;;;;;;;39.4;26.2;;;;;;;3.18;87.81445;100532.5;;;;
2021/03/01 19:16:50;;;;;;;35.4;23.9;;;;;;;3.1;88.23926;100538.1;;;;
2021/03/01 19:26:46;;;;;;;41;27.4;;;;;;;3.02;88.40039;100544.4;;;;
2021/03/01 19:36:44;;;;;;;36.6;24.6;;;;;;;2.93;89.0127;100556.4;;;;
2021/03/01 19:46:42;;;;;;;25.3;21.1;;;;;;;3.05;88.69434;100549.3;;;;
2021/03/01 19:56:40;;;;;;;30.7;22.8;;;;;;;3.01;88.7207;100545.5;;;;
2021/03/01 20:06:38;;;;;;;38.3;25.4;;;;;;;3.1;88.50488;100554;;;;
2021/03/01 20:16:37;;;;;;;40;30.1;;;;;;;3.16;88.05176;100552.4;;;;
2021/03/01 20:26:35;;;;;;;33.9;27.9;;;;;;;2.67;89.24414;100543.1;;;;
2021/03/01 20:36:32;;;;;;;41;30.1;;;;;;;2.37;89.40234;100526;;;;
2021/03/01 20:46:30;;;;;;;42.6;30.4;;;;;;;1.94;89.13672;100525.6;;;;
2021/03/01 20:56:28;;;;;;;33.9;27.1;;;;;;;1.42;89.76465;100515.7;;;;
2021/03/01 21:06:26;;;;;;;49.9;30;;;;;;;1.03;93.42773;100520.9;;;;
2021/03/01 21:16:24;;;;;;;46.6;32.8;;;;;;;0.8;96.57129;100523.8;;;;
2021/03/01 21:26:22;;;;;;;48.1;34.6;;;;;;;0.66;98.2373;100514.2;;;;
2021/03/01 21:36:19;;;;;;;51.5;36.8;;;;;;;0.5;99.0127;100523.3;;;;
2021/03/01 21:46:17;;;;;;;57.7;46.9;;;;;;;0.41;100;100516.5;;;;
2021/03/01 21:56:15;;;;;;;51.2;39.8;;;;;;;0.36;100;100509.1;;;;
2021/03/01 22:06:12;;;;;;;51.5;43.5;;;;;;;0.26;100;100521.9;;;;
2021/03/01 22:16:10;;;;;;;58.9;42.7;;;;;;;0.21;100;100512.9;;;;
2021/03/01 22:26:08;;;;;;;55.3;47.1;;;;;;;0.12;100;100522;;;;
2021/03/01 22:36:05;;;;;;;59.5;47.1;;;;;;;0.07;100;100529.7;;;;
2021/03/01 22:46:03;;;;;;;54.3;41.2;;;;;;;-0.01;100;100515.6;;;;
2021/03/01 22:56:01;;;;;;;52.4;38;;;;;;;-0.23;100;100524.5;;;;
2021/03/01 23:05:58;;;;;;;46.4;38;;;;;;;-0.45;100;100528.2;;;;
2021/03/01 23:15:56;;;;;;;80.5;58.6;;;;;;;-0.75;100;100553.9;;;;
2021/03/01 23:25:54;;;;;;;93.4;67.9;;;;;;;-1.05;100;100547.1;;;;
2021/03/01 23:35:51;;;;;;;71.7;49.4;;;;;;;-1.26;100;100565.5;;;;
2021/03/01 23:45:51;;;;;;;73.4;49;;;;;;;-1.49;100;100562.9;;;;
2021/03/01 23:55:46;;;;;;;70.9;55.3;;;;;;;-1.69;100;100575;;;;
